首页
METAR-TAF:

METAR-TAF

机场 :

埃門, 瑞士

纬度: 47-05-32N, 经度: 8-18-16E, 海拔: 426米

当前天气观测

该预报发布于41分钟前的06:20 UTC
风速1节,风向西
温度 3°C
湿度 93%
气压 1007 hPa
能見度: 3900
少量云层高于3700英尺
小雨, 轻雾

METAR: LSME 170620Z AUTO 26001KT 3900NDV -RA BR FEW037 03/02 Q1007 RMK

时间: 08:01 (07:01 UTC)


TAF: 丢失

超过4000个机场的气象观测和天气预报(METAR&TAF报告)。

可查询的气象台以黄色和红色小点在地图上表示。

将鼠标移到小点上方,可查看气象台名称。

然后点击查看天气观测和预报。

如需切换地图:点击带黑十字的绿色按钮放大地图;点击带横线的绿色按钮缩小地图;或者点击绿色箭头查看邻近地区的地图。


METAR-TAF: